createdAt,value
2018-12-04T00:06:54.815Z,8.6
2018-12-04T00:17:43.032Z,8.4
2018-12-04T00:27:54.710Z,8.3
2018-12-04T00:38:08.033Z,8.3
2018-12-04T00:48:26.077Z,8.1
2018-12-04T00:59:13.122Z,7.8
2018-12-04T01:09:29.835Z,7.8
2018-12-04T01:19:47.326Z,7.7
2018-12-04T01:30:01.289Z,7.6
2018-12-04T01:40:15.252Z,7.6
2018-12-04T01:50:29.382Z,7.5
2018-12-04T02:00:44.730Z,7.5
2018-12-04T02:11:04.719Z,7.4
2018-12-04T02:21:51.026Z,7.4
2018-12-04T02:32:04.923Z,7.4
2018-12-04T02:42:18.352Z,7.4
2018-12-04T02:52:31.640Z,7.4
2018-12-04T03:03:17.389Z,7.3
2018-12-04T03:13:30.842Z,7.3
2018-12-04T03:23:49.284Z,7.3
2018-12-04T03:34:03.768Z,7.2
2018-12-04T03:44:17.166Z,7.0
2018-12-04T03:54:30.501Z,6.9
2018-12-04T04:04:43.535Z,6.7
2018-12-04T04:14:57.124Z,6.6
2018-12-04T04:25:08.078Z,6.4
2018-12-04T04:35:21.771Z,6.2
2018-12-04T04:45:48.107Z,6.0
2018-12-04T04:56:02.071Z,5.8
2018-12-04T05:06:15.505Z,5.6
2018-12-04T05:17:01.243Z,5.3
2018-12-04T05:27:13.455Z,5.3
2018-12-04T05:37:59.116Z,5.0
2018-12-04T05:48:12.839Z,5.0
2018-12-04T05:59:36.848Z,4.8
2018-12-04T06:09:49.947Z,4.8
2018-12-04T06:20:17.229Z,4.7
2018-12-04T06:31:01.828Z,4.4
2018-12-04T06:41:15.193Z,4.4
2018-12-04T06:52:19.642Z,4.2
2018-12-04T07:03:04.913Z,4.2
2018-12-04T07:13:17.826Z,4.1
2018-12-04T07:23:31.146Z,4.1
2018-12-04T07:34:07.772Z,4.0
2018-12-04T07:44:21.621Z,3.9
2018-12-04T07:54:34.822Z,3.8
2018-12-04T08:04:46.122Z,3.7
2018-12-04T08:14:57.622Z,3.7
2018-12-04T08:26:04.124Z,3.7
2018-12-04T08:36:17.348Z,3.7
2018-12-04T08:46:30.850Z,3.7
2018-12-04T08:57:15.522Z,3.8
2018-12-04T09:07:28.619Z,3.8
2018-12-04T09:17:42.008Z,3.9
2018-12-04T09:27:55.816Z,4.0
2018-12-04T09:38:06.755Z,4.2
2018-12-04T09:48:20.638Z,4.3
2018-12-04T09:58:33.718Z,4.4
2018-12-04T10:08:46.872Z,4.6
2018-12-04T10:19:31.705Z,4.8
2018-12-04T10:30:50.758Z,5.0
2018-12-04T10:41:35.635Z,5.2
2018-12-04T10:51:48.953Z,5.2
2018-12-04T11:02:35.511Z,5.6
2018-12-04T11:13:23.512Z,5.8
2018-12-04T11:23:34.919Z,5.8
2018-12-04T11:33:48.397Z,6.1
2018-12-04T11:44:01.370Z,6.5
2018-12-04T11:54:14.662Z,7.3
2018-12-04T12:05:00.468Z,10.7
2018-12-04T12:15:17.821Z,10.7
2018-12-04T12:25:25.307Z,12.2
2018-12-04T12:35:39.136Z,13.4
2018-12-04T12:45:59.975Z,14.3
2018-12-04T12:56:13.368Z,14.9
2018-12-04T13:06:26.884Z,15.2
2018-12-04T13:16:40.067Z,15.4
2018-12-04T13:28:29.707Z,15.5
2018-12-04T13:38:43.575Z,15.5
2018-12-04T13:49:04.427Z,15.6
2018-12-04T13:59:37.974Z,15.6
2018-12-04T14:09:51.391Z,15.5
2018-12-04T14:20:02.664Z,15.4
2018-12-04T14:30:47.826Z,15.0
2018-12-04T14:41:41.643Z,14.6
2018-12-04T14:51:52.732Z,14.6
2018-12-04T15:02:05.179Z,14.2
2018-12-04T15:12:52.683Z,12.9
2018-12-04T15:23:05.939Z,12.8
2018-12-04T15:34:25.268Z,11.2
2018-12-04T15:45:24.936Z,10.6
2018-12-04T15:56:35.037Z,9.8
2018-12-04T16:06:48.861Z,9.8
2018-12-04T16:17:18.148Z,9.2
2018-12-04T16:27:29.479Z,8.6
2018-12-04T16:37:58.152Z,8.0
2018-12-04T16:48:11.826Z,7.6
2018-12-04T16:58:56.448Z,6.7
2018-12-04T17:09:10.317Z,6.6
2018-12-04T17:19:24.642Z,6.3
2018-12-04T17:29:38.583Z,5.9
2018-12-04T17:39:52.010Z,5.5
2018-12-04T17:50:36.405Z,4.8
2018-12-04T18:00:49.804Z,4.8
2018-12-04T18:11:03.281Z,4.5
2018-12-04T18:21:20.799Z,4.2
2018-12-04T18:31:34.296Z,3.9
2018-12-04T18:41:46.949Z,3.7
2018-12-04T18:52:00.312Z,3.4
2018-12-04T19:02:56.808Z,2.9
2018-12-04T19:28:34.463Z,2.7
2018-12-04T20:02:45.624Z,1.7
2018-12-04T20:13:04.339Z,1.7
2018-12-04T20:47:53.718Z,1.2
2018-12-04T20:58:59.873Z,1.2
2018-12-04T21:23:24.947Z,1.1
2018-12-04T21:33:39.149Z,1.1
2018-12-04T21:43:51.448Z,1.1
2018-12-04T21:54:07.605Z,1.0
2018-12-04T22:04:21.926Z,0.9
2018-12-04T22:14:36.106Z,0.8
2018-12-04T22:25:29.870Z,0.6
2018-12-04T22:36:14.644Z,0.6
2018-12-04T22:46:59.329Z,0.5
2018-12-04T22:57:10.767Z,0.5
2018-12-04T23:07:56.655Z,0.3
2018-12-04T23:18:09.801Z,0.2
2018-12-04T23:28:56.584Z,0.0
2018-12-04T23:39:41.404Z,-0.1
2018-12-04T23:49:55.519Z,-0.1
